Time,TemperatureF,DewpointF,PressureIn,WindDirection,WindDirectionDegrees,WindSpeedMPH,WindSpeedGustMPH,Humidity,HourlyPrecipIn,Conditions,Clouds,dailyrainin,SoftwareType,DateUTC
2013-02-13 00:00:00,38.7,37.7,29.94,WNW,288,0.0,0.0,96,0.11,RA,,0.27,WeatherDisplay:10.37,2013-02-13 05:00:00,
2013-02-13 00:01:00,38.7,37.7,29.94,WNW,288,0.0,0.0,96,0.11,RA,,0.00,WeatherDisplay:10.37,2013-02-13 05:01:00,
2013-02-13 00:06:00,38.6,37.6,29.94,NE,47,0.4,1.2,96,0.13,OVC,,0.02,WeatherDisplay:10.37,2013-02-13 05:06:00,
2013-02-13 00:11:00,38.6,37.6,29.94,NE,41,0.0,0.0,96,0.13,OVC,,0.02,WeatherDisplay:10.37,2013-02-13 05:11:00,
2013-02-13 00:16:00,38.4,37.4,29.94,NE,42,0.0,0.0,96,0.12,OVC,,0.02,WeatherDisplay:10.37,2013-02-13 05:16:00,
2013-02-13 00:21:00,38.4,37.4,29.93,NE,41,0.0,0.0,96,0.13,OVC,,0.03,WeatherDisplay:10.37,2013-02-13 05:21:00,
2013-02-13 00:26:00,38.4,37.4,29.93,NE,42,0.0,0.0,96,0.14,RA,,0.04,WeatherDisplay:10.37,2013-02-13 05:26:00,
2013-02-13 00:31:00,38.4,37.4,29.93,NE,42,0.0,0.0,96,0.13,OVC,,0.04,WeatherDisplay:10.37,2013-02-13 05:31:00,
2013-02-13 00:36:00,38.4,37.4,29.93,NE,41,0.0,0.0,96,0.14,OVC,,0.05,WeatherDisplay:10.37,2013-02-13 05:36:00,
2013-02-13 00:41:00,38.4,37.4,29.93,NE,42,0.0,0.0,96,0.16,OVC,,0.07,WeatherDisplay:10.37,2013-02-13 05:41:00,
2013-02-13 00:46:00,38.3,37.3,29.93,NE,42,0.0,0.0,96,0.16,OVC,,0.08,WeatherDisplay:10.37,2013-02-13 05:46:00,
2013-02-13 00:51:00,38.2,37.2,29.92,North,350,0.0,0.0,96,0.15,OVC,,0.10,WeatherDisplay:10.37,2013-02-13 05:51:00,
2013-02-13 00:56:00,37.9,36.6,29.92,North,350,0.0,0.0,95,0.13,OVC,,0.10,WeatherDisplay:10.37,2013-02-13 05:56:00,
2013-02-13 01:01:00,37.9,36.6,29.90,North,350,0.0,0.0,95,0.10,OVC,,0.10,WeatherDisplay:10.37,2013-02-13 06:01:00,
2013-02-13 01:06:00,37.8,36.8,29.90,North,350,0.0,0.0,96,0.08,-RA,,0.10,WeatherDisplay:10.37,2013-02-13 06:06:00,
2013-02-13 01:11:00,37.8,36.8,29.90,North,350,0.0,0.0,96,0.08,-RA,,0.10,WeatherDisplay:10.37,2013-02-13 06:11:00,
2013-02-13 01:16:00,37.7,36.7,29.90,North,350,0.0,0.0,96,0.08,-RA,,0.10,WeatherDisplay:10.37,2013-02-13 06:16:00,
2013-02-13 01:21:00,37.8,36.8,29.90,North,350,0.0,0.0,96,0.07,-RA,,0.10,WeatherDisplay:10.37,2013-02-13 06:21:00,
2013-02-13 01:26:00,37.7,36.7,29.90,North,350,0.0,0.0,96,0.07,-RA,,0.11,WeatherDisplay:10.37,2013-02-13 06:26:00,
2013-02-13 01:31:00,37.7,36.7,29.89,North,350,0.0,0.0,96,0.07,-RA,,0.11,WeatherDisplay:10.37,2013-02-13 06:31:00,
2013-02-13 01:36:00,37.7,36.7,29.89,North,350,0.0,0.0,96,0.06,-RA,,0.11,WeatherDisplay:10.37,2013-02-13 06:36:00,
2013-02-13 01:41:00,37.7,36.7,29.89,North,350,0.0,0.0,96,0.04,-RA,,0.11,WeatherDisplay:10.37,2013-02-13 06:41:00,
2013-02-13 01:46:00,37.8,36.8,29.89,North,350,0.0,0.0,96,0.03,-RA,,0.11,WeatherDisplay:10.37,2013-02-13 06:46:00,
2013-02-13 01:51:00,37.8,36.8,29.90,North,350,0.0,0.0,96,0.02,-RA,,0.11,WeatherDisplay:10.37,2013-02-13 06:51:00,
2013-02-13 01:56:00,37.8,36.8,29.89,North,350,0.0,0.0,96,0.01,-RA,,0.11,WeatherDisplay:10.37,2013-02-13 06:56:00,
2013-02-13 02:01:00,37.8,36.8,29.89,North,350,0.0,0.0,96,0.02,-RA,,0.12,WeatherDisplay:10.37,2013-02-13 07:01:00,
2013-02-13 02:06:00,37.8,36.8,29.88,North,350,0.0,0.0,96,0.02,-RA,,0.12,WeatherDisplay:10.37,2013-02-13 07:06:00,
2013-02-13 02:11:00,37.8,36.8,29.88,North,350,0.0,0.0,96,0.02,-RA,,0.12,WeatherDisplay:10.37,2013-02-13 07:11:00,
2013-02-13 02:16:00,37.8,36.8,29.88,North,350,0.0,0.0,96,0.02,-RA,,0.12,WeatherDisplay:10.37,2013-02-13 07:16:00,
2013-02-13 02:21:00,37.8,36.8,29.88,North,350,0.0,0.0,96,0.02,-RA,,0.12,WeatherDisplay:10.37,2013-02-13 07:21:00,
2013-02-13 02:26:00,37.8,36.8,29.88,North,350,0.0,0.0,96,0.01,-RA,,0.12,WeatherDisplay:10.37,2013-02-13 07:26:00,
2013-02-13 02:31:00,37.7,36.7,29.87,North,350,0.0,0.0,96,0.01,-RA,,0.12,WeatherDisplay:10.37,2013-02-13 07:31:00,
2013-02-13 02:36:00,37.7,36.7,29.87,North,350,0.0,0.0,96,0.01,-RA,,0.12,WeatherDisplay:10.37,2013-02-13 07:36:00,
2013-02-13 02:41:00,37.8,36.8,29.86,North,350,0.0,0.0,96,0.01,-RA,,0.12,WeatherDisplay:10.37,2013-02-13 07:41:00,
2013-02-13 02:46:00,37.8,36.8,29.86,North,350,0.0,0.0,96,0.01,-RA,,0.12,WeatherDisplay:10.37,2013-02-13 07:46:00,
2013-02-13 02:51:00,37.8,36.8,29.86,North,350,0.0,0.0,96,0.01,-RA,,0.12,WeatherDisplay:10.37,2013-02-13 07:51:00,
2013-02-13 02:56:00,37.8,36.8,29.86,North,350,0.0,0.0,96,0.01,-RA,,0.12,WeatherDisplay:10.37,2013-02-13 07:56:00,
2013-02-13 03:01:00,37.8,36.8,29.85,North,350,0.0,0.0,96,0.00,-RA,,0.12,WeatherDisplay:10.37,2013-02-13 08:01:00,
2013-02-13 03:06:00,37.8,36.8,29.85,North,350,0.0,0.0,96,0.00,OVC,,0.12,WeatherDisplay:10.37,2013-02-13 08:06:00,
2013-02-13 03:11:00,37.8,36.8,29.85,North,350,0.0,0.0,96,0.00,OVC,,0.12,WeatherDisplay:10.37,2013-02-13 08:11:00,
2013-02-13 03:16:00,37.8,36.8,29.85,North,350,0.0,0.0,96,0.00,OVC,,0.12,WeatherDisplay:10.37,2013-02-13 08:16:00,
2013-02-13 03:22:00,37.7,36.7,29.85,North,350,0.0,0.0,96,0.00,OVC,,0.12,WeatherDisplay:10.37,2013-02-13 08:22:00,
2013-02-13 03:27:00,37.7,36.4,29.84,North,350,0.0,0.0,95,0.00,OVC,,0.12,WeatherDisplay:10.37,2013-02-13 08:27:00,
2013-02-13 03:32:00,37.7,36.4,29.84,WNW,287,0.0,0.0,95,0.01,OVC,,0.13,WeatherDisplay:10.37,2013-02-13 08:32:00,
2013-02-13 03:37:00,37.7,36.4,29.84,NNE,12,0.8,2.4,95,0.01,OVC,,0.13,WeatherDisplay:10.37,2013-02-13 08:37:00,
2013-02-13 03:42:00,37.7,36.4,29.83,NNE,12,0.0,0.0,95,0.03,RA,,0.15,WeatherDisplay:10.37,2013-02-13 08:42:00,
2013-02-13 03:47:00,37.7,36.4,29.83,NNE,12,0.0,0.0,95,0.03,OVC,,0.15,WeatherDisplay:10.37,2013-02-13 08:47:00,
2013-02-13 03:52:00,37.7,36.7,29.83,NNE,12,0.0,0.0,96,0.03,OVC,,0.15,WeatherDisplay:10.37,2013-02-13 08:52:00,
2013-02-13 03:57:00,37.7,36.7,29.82,NNE,12,0.0,0.0,96,0.03,OVC,,0.15,WeatherDisplay:10.37,2013-02-13 08:57:00,
2013-02-13 04:02:00,37.7,36.7,29.82,NNE,12,0.0,0.0,96,0.03,OVC,,0.15,WeatherDisplay:10.37,2013-02-13 09:02:00,
2013-02-13 04:07:00,37.7,36.7,29.82,NNE,12,0.0,0.0,96,0.03,OVC,,0.15,WeatherDisplay:10.37,2013-02-13 09:07:00,
2013-02-13 04:12:00,37.7,36.7,29.81,NNE,12,0.0,0.0,96,0.03,OVC,,0.15,WeatherDisplay:10.37,2013-02-13 09:12:00,
2013-02-13 04:17:00,37.7,36.7,29.81,NNE,12,0.0,0.0,96,0.03,OVC,,0.15,WeatherDisplay:10.37,2013-02-13 09:17:00,
2013-02-13 04:22:00,37.8,36.8,29.81,NNE,12,0.0,0.0,96,0.03,OVC,,0.15,WeatherDisplay:10.37,2013-02-13 09:22:00,
2013-02-13 04:27:00,37.7,36.7,29.81,NNE,12,0.0,0.0,96,0.03,OVC,,0.15,WeatherDisplay:10.37,2013-02-13 09:27:00,
2013-02-13 04:32:00,37.8,36.8,29.81,NNE,12,0.0,0.0,96,0.02,OVC,,0.15,WeatherDisplay:10.37,2013-02-13 09:32:00,
2013-02-13 04:37:00,37.9,36.9,29.81,NNE,12,0.0,0.0,96,0.01,OVC,,0.15,WeatherDisplay:10.37,2013-02-13 09:37:00,
2013-02-13 04:42:00,37.8,36.8,29.81,NNE,13,0.0,0.0,96,0.02,OVC,,0.17,WeatherDisplay:10.37,2013-02-13 09:42:00,
2013-02-13 04:47:00,37.8,36.8,29.81,NNE,13,0.0,0.0,96,0.03,OVC,,0.18,WeatherDisplay:10.37,2013-02-13 09:47:00,
2013-02-13 04:52:00,37.9,36.9,29.81,NNE,14,0.0,0.0,96,0.03,OVC,,0.18,WeatherDisplay:10.37,2013-02-13 09:52:00,
2013-02-13 04:57:00,37.9,36.9,29.80,NNE,12,0.0,0.0,96,0.03,OVC,,0.18,WeatherDisplay:10.37,2013-02-13 09:57:00,
2013-02-13 05:02:00,37.9,36.9,29.80,NNE,12,0.0,0.0,96,0.04,RA,,0.19,WeatherDisplay:10.37,2013-02-13 10:02:00,
2013-02-13 05:07:00,38.0,37.0,29.80,NNE,12,0.0,0.0,96,0.04,OVC,,0.19,WeatherDisplay:10.37,2013-02-13 10:07:00,
2013-02-13 05:12:00,38.0,37.0,29.80,NNE,12,0.0,0.0,96,0.04,OVC,,0.19,WeatherDisplay:10.37,2013-02-13 10:12:00,
2013-02-13 05:17:00,38.0,37.0,29.80,NNE,12,0.0,0.0,96,0.04,OVC,,0.19,WeatherDisplay:10.37,2013-02-13 10:17:00,
2013-02-13 05:22:00,38.1,37.1,29.79,WSW,257,0.0,0.0,96,0.04,OVC,,0.19,WeatherDisplay:10.37,2013-02-13 10:22:00,
2013-02-13 05:27:00,38.0,36.7,29.79,WSW,257,0.0,0.0,95,0.04,OVC,,0.19,WeatherDisplay:10.37,2013-02-13 10:27:00,
2013-02-13 05:32:00,38.1,36.8,29.79,SE,143,0.0,0.0,95,0.04,OVC,,0.19,WeatherDisplay:10.37,2013-02-13 10:32:00,
2013-02-13 05:37:00,38.1,36.8,29.79,SE,143,0.0,0.0,95,0.04,OVC,,0.19,WeatherDisplay:10.37,2013-02-13 10:37:00,
2013-02-13 05:42:00,38.1,36.8,29.78,SE,143,0.0,0.0,95,0.02,OVC,,0.19,WeatherDisplay:10.37,2013-02-13 10:42:00,
2013-02-13 05:47:00,38.1,36.8,29.77,SE,143,0.0,0.0,95,0.01,OVC,,0.19,WeatherDisplay:10.37,2013-02-13 10:47:00,
2013-02-13 05:52:00,38.1,36.8,29.79,SE,144,0.5,2.4,95,0.01,OVC,,0.19,WeatherDisplay:10.37,2013-02-13 10:52:00,
2013-02-13 05:57:00,38.1,36.8,29.78,SW,224,0.2,3.5,95,0.01,OVC,,0.19,WeatherDisplay:10.37,2013-02-13 10:57:00,
2013-02-13 06:02:00,38.2,36.9,29.78,SW,224,0.0,0.0,95,0.00,OVC,,0.19,WeatherDisplay:10.37,2013-02-13 11:02:00,
2013-02-13 06:07:00,38.2,36.9,29.77,South,189,0.0,0.0,95,0.00,OVC,,0.19,WeatherDisplay:10.37,2013-02-13 11:07:00,
2013-02-13 06:12:00,38.2,36.9,29.77,South,189,0.0,0.0,95,0.00,OVC,,0.19,WeatherDisplay:10.37,2013-02-13 11:12:00,
2013-02-13 06:17:00,38.2,36.9,29.76,South,189,0.0,0.0,95,0.00,OVC,,0.19,WeatherDisplay:10.37,2013-02-13 11:17:00,
2013-02-13 06:22:00,38.2,36.9,29.76,South,189,0.0,0.0,95,0.00,OVC,,0.19,WeatherDisplay:10.37,2013-02-13 11:22:00,
2013-02-13 06:27:00,38.2,37.2,29.76,South,189,0.0,0.0,96,0.00,OVC,,0.19,WeatherDisplay:10.37,2013-02-13 11:27:00,
2013-02-13 06:32:00,38.2,36.9,29.76,South,189,0.0,0.0,95,0.00,OVC,,0.19,WeatherDisplay:10.37,2013-02-13 11:32:00,
2013-02-13 06:37:00,38.2,37.2,29.76,South,189,0.0,0.0,96,0.00,OVC,,0.19,WeatherDisplay:10.37,2013-02-13 11:37:00,
2013-02-13 06:42:00,38.2,37.2,29.76,South,189,0.0,0.0,96,0.00,OVC,,0.19,WeatherDisplay:10.37,2013-02-13 11:42:00,
2013-02-13 06:47:00,38.2,37.2,29.77,South,189,0.0,0.0,96,0.00,OVC,,0.19,WeatherDisplay:10.37,2013-02-13 11:47:00,
2013-02-13 06:52:00,38.2,37.2,29.77,South,189,0.0,0.0,96,0.00,OVC,,0.19,WeatherDisplay:10.37,2013-02-13 11:52:00,
2013-02-13 06:57:00,38.2,37.2,29.77,South,189,0.0,0.0,96,0.00,OVC,,0.19,WeatherDisplay:10.37,2013-02-13 11:57:00,
2013-02-13 07:02:00,38.2,37.2,29.77,South,189,0.0,0.0,96,0.00,OVC,,0.19,WeatherDisplay:10.37,2013-02-13 12:02:00,
2013-02-13 07:07:00,38.3,37.3,29.77,South,189,0.0,0.0,96,0.00,OVC,,0.19,WeatherDisplay:10.37,2013-02-13 12:07:00,
2013-02-13 07:12:00,38.3,37.3,29.77,South,189,0.0,0.0,96,0.00,OVC,,0.19,WeatherDisplay:10.37,2013-02-13 12:12:00,
2013-02-13 07:17:00,38.3,37.3,29.77,South,189,0.0,0.0,96,0.00,OVC,,0.19,WeatherDisplay:10.37,2013-02-13 12:17:00,
2013-02-13 07:22:00,38.2,37.2,29.77,South,189,0.0,0.0,96,0.00,OVC,,0.19,WeatherDisplay:10.37,2013-02-13 12:22:00,
2013-02-13 07:27:00,38.3,37.3,29.77,South,189,0.0,0.0,96,0.00,OVC,,0.19,WeatherDisplay:10.37,2013-02-13 12:27:00,
2013-02-13 07:32:00,38.2,37.2,29.76,South,189,0.0,0.0,96,0.00,OVC,,0.19,WeatherDisplay:10.37,2013-02-13 12:32:00,
2013-02-13 07:37:00,38.3,37.3,29.78,South,189,0.0,0.0,96,0.00,OVC,,0.19,WeatherDisplay:10.37,2013-02-13 12:37:00,
2013-02-13 07:42:00,38.3,37.3,29.79,South,189,0.0,0.0,96,0.00,OVC,,0.19,WeatherDisplay:10.37,2013-02-13 12:42:00,
2013-02-13 07:47:00,38.3,37.3,29.78,South,189,0.0,0.0,96,0.00,OVC,,0.19,WeatherDisplay:10.37,2013-02-13 12:47:00,
2013-02-13 07:52:00,38.4,37.4,29.77,South,189,0.0,0.0,96,0.00,OVC,,0.19,WeatherDisplay:10.37,2013-02-13 12:52:00,
2013-02-13 07:57:00,38.4,37.4,29.77,South,189,0.0,0.0,96,0.00,OVC,,0.19,WeatherDisplay:10.37,2013-02-13 12:57:00,
2013-02-13 08:02:00,38.5,37.5,29.76,South,189,0.0,0.0,96,0.00,OVC,,0.19,WeatherDisplay:10.37,2013-02-13 13:02:00,
2013-02-13 08:07:00,38.5,37.5,29.76,South,189,0.0,0.0,96,0.00,OVC,,0.19,WeatherDisplay:10.37,2013-02-13 13:07:00,
2013-02-13 08:13:00,38.5,37.5,29.75,South,189,0.0,0.0,96,0.00,OVC,,0.19,WeatherDisplay:10.37,2013-02-13 13:13:00,
2013-02-13 08:18:00,38.4,37.4,29.75,South,189,0.0,0.0,96,0.00,OVC,,0.19,WeatherDisplay:10.37,2013-02-13 13:18:00,
2013-02-13 08:23:00,38.5,37.5,29.76,South,189,0.0,0.0,96,0.00,OVC,,0.19,WeatherDisplay:10.37,2013-02-13 13:23:00,
2013-02-13 08:28:00,38.6,37.6,29.75,South,189,0.0,0.0,96,0.00,OVC,,0.19,WeatherDisplay:10.37,2013-02-13 13:28:00,
2013-02-13 08:33:00,38.7,37.7,29.75,South,189,0.0,0.0,96,0.00,OVC,,0.19,WeatherDisplay:10.37,2013-02-13 13:33:00,
2013-02-13 08:38:00,38.8,37.8,29.76,South,189,0.0,0.0,96,0.00,OVC,,0.19,WeatherDisplay:10.37,2013-02-13 13:38:00,
2013-02-13 08:43:00,38.8,37.8,29.76,South,189,0.0,0.0,96,0.00,OVC,,0.19,WeatherDisplay:10.37,2013-02-13 13:43:00,
2013-02-13 08:48:00,38.9,37.9,29.75,South,189,0.0,0.0,96,0.00,OVC,,0.19,WeatherDisplay:10.37,2013-02-13 13:48:00,
2013-02-13 08:53:00,38.9,37.9,29.75,SE,137,0.0,1.1,96,0.00,OVC,,0.19,WeatherDisplay:10.37,2013-02-13 13:53:00,
2013-02-13 08:58:00,38.9,37.9,29.75,SE,137,0.0,0.0,96,0.00,OVC,,0.19,WeatherDisplay:10.37,2013-02-13 13:58:00,
2013-02-13 09:03:00,39.0,38.0,29.75,SSW,209,0.0,0.0,96,0.00,OVC,,0.19,WeatherDisplay:10.37,2013-02-13 14:03:00,
2013-02-13 09:08:00,39.2,38.2,29.75,SSW,205,0.0,1.2,96,0.00,OVC,,0.19,WeatherDisplay:10.37,2013-02-13 14:08:00,
2013-02-13 09:13:00,39.2,37.9,29.74,SSW,205,0.2,1.1,95,0.00,OVC,,0.19,WeatherDisplay:10.37,2013-02-13 14:13:00,
2013-02-13 09:18:00,39.3,38.0,29.74,SSW,205,0.0,1.1,95,0.00,OVC,,0.19,WeatherDisplay:10.37,2013-02-13 14:18:00,
2013-02-13 09:23:00,39.4,38.1,29.75,SSW,205,0.0,0.0,95,0.00,OVC,,0.19,WeatherDisplay:10.37,2013-02-13 14:23:00,
2013-02-13 09:28:00,39.5,38.5,29.75,SSW,205,0.0,0.0,96,0.00,OVC,,0.19,WeatherDisplay:10.37,2013-02-13 14:28:00,
2013-02-13 09:33:00,39.7,38.4,29.74,SE,131,0.0,1.1,95,0.00,OVC,,0.19,WeatherDisplay:10.37,2013-02-13 14:33:00,
2013-02-13 09:38:00,39.8,38.5,29.76,SE,131,0.0,0.0,95,0.00,OVC,,0.19,WeatherDisplay:10.37,2013-02-13 14:38:00,
2013-02-13 09:43:00,40.0,38.7,29.75,SE,131,0.0,0.0,95,0.00,OVC,,0.19,WeatherDisplay:10.37,2013-02-13 14:43:00,
2013-02-13 09:48:00,40.1,38.8,29.73,SE,131,0.2,1.1,95,0.00,OVC,,0.19,WeatherDisplay:10.37,2013-02-13 14:48:00,
2013-02-13 09:53:00,40.4,39.1,29.73,SE,131,0.0,0.0,95,0.00,OVC,,0.19,WeatherDisplay:10.37,2013-02-13 14:53:00,
2013-02-13 09:58:00,40.7,39.4,29.73,SE,131,0.0,1.1,95,0.00,OVC,,0.19,WeatherDisplay:10.37,2013-02-13 14:58:00,
2013-02-13 10:03:00,40.9,39.6,29.73,SE,130,0.0,1.1,95,0.00,OVC,,0.19,WeatherDisplay:10.37,2013-02-13 15:03:00,
2013-02-13 10:08:00,41.4,40.1,29.73,East,89,1.1,1.1,95,0.00,OVC,,0.19,WeatherDisplay:10.37,2013-02-13 15:08:00,
2013-02-13 10:13:00,41.5,39.9,29.73,East,89,0.0,1.1,94,0.00,OVC,,0.19,WeatherDisplay:10.37,2013-02-13 15:13:00,
2013-02-13 10:18:00,41.7,40.1,29.73,East,89,0.0,0.0,94,0.00,OVC,,0.19,WeatherDisplay:10.37,2013-02-13 15:18:00,
2013-02-13 10:23:00,41.8,39.9,29.73,SE,135,0.4,2.4,93,0.00,OVC,,0.19,WeatherDisplay:10.37,2013-02-13 15:23:00,
2013-02-13 10:28:00,41.8,39.9,29.72,ESE,112,0.0,0.0,93,0.00,OVC,,0.19,WeatherDisplay:10.37,2013-02-13 15:28:00,
2013-02-13 10:33:00,41.9,40.0,29.72,NNE,27,0.0,0.0,93,0.00,OVC,,0.19,WeatherDisplay:10.37,2013-02-13 15:33:00,
2013-02-13 10:38:00,42.0,40.1,29.73,ENE,76,0.0,0.0,93,0.00,OVC,,0.19,WeatherDisplay:10.37,2013-02-13 15:38:00,
2013-02-13 10:43:00,42.2,40.3,29.72,ENE,75,0.0,1.1,93,0.00,OVC,,0.19,WeatherDisplay:10.37,2013-02-13 15:43:00,
2013-02-13 10:48:00,42.4,40.5,29.73,NNW,336,0.1,0.0,93,0.00,OVC,,0.19,WeatherDisplay:10.37,2013-02-13 15:48:00,
2013-02-13 10:53:00,42.4,40.5,29.73,NW,313,0.0,0.0,93,0.00,OVC,,0.19,WeatherDisplay:10.37,2013-02-13 15:53:00,
2013-02-13 10:58:00,42.6,40.4,29.73,ENE,60,0.0,0.0,92,0.00,OVC,,0.19,WeatherDisplay:10.37,2013-02-13 15:58:00,
2013-02-13 11:03:00,42.8,40.6,29.73,ENE,74,0.0,1.1,92,0.00,OVC,,0.19,WeatherDisplay:10.37,2013-02-13 16:03:00,
2013-02-13 11:08:00,42.9,40.7,29.71,East,93,0.5,2.3,92,0.00,OVC,,0.19,WeatherDisplay:10.37,2013-02-13 16:08:00,
2013-02-13 11:13:00,43.1,41.2,29.71,NE,55,2.8,4.6,93,0.00,OVC,,0.19,WeatherDisplay:10.37,2013-02-13 16:13:00,
2013-02-13 11:18:00,43.3,40.8,29.71,NE,56,0.0,1.1,91,0.00,OVC,,0.19,WeatherDisplay:10.37,2013-02-13 16:18:00,
2013-02-13 11:23:00,43.3,40.8,29.71,ENE,62,0.0,0.0,91,0.00,OVC,,0.19,WeatherDisplay:10.37,2013-02-13 16:23:00,
2013-02-13 11:28:00,43.5,41.0,29.71,ENE,62,0.5,1.2,91,0.00,OVC,,0.19,WeatherDisplay:10.37,2013-02-13 16:28:00,
2013-02-13 11:33:00,43.5,41.0,29.71,WSW,239,0.0,0.0,91,0.00,OVC,,0.19,WeatherDisplay:10.37,2013-02-13 16:33:00,
2013-02-13 11:38:00,43.8,41.3,29.71,WSW,248,0.0,0.0,91,0.00,OVC,,0.19,WeatherDisplay:10.37,2013-02-13 16:38:00,
2013-02-13 11:43:00,44.2,42.0,29.71,North,355,0.0,0.0,92,0.00,OVC,,0.19,WeatherDisplay:10.37,2013-02-13 16:43:00,
2013-02-13 11:48:00,44.6,42.1,29.71,ENE,69,0.0,1.1,91,0.00,OVC,,0.19,WeatherDisplay:10.37,2013-02-13 16:48:00,
2013-02-13 11:53:00,44.7,41.9,29.70,ENE,75,0.0,0.0,90,0.00,OVC,,0.19,WeatherDisplay:10.37,2013-02-13 16:53:00,
2013-02-13 11:58:00,44.9,42.4,29.70,ENE,69,0.0,1.1,91,0.00,OVC,,0.19,WeatherDisplay:10.37,2013-02-13 16:58:00,
2013-02-13 12:03:00,45.1,42.3,29.70,East,79,1.5,1.5,90,0.00,OVC,,0.19,WeatherDisplay:10.37,2013-02-13 17:03:00,
2013-02-13 12:08:00,45.2,41.9,29.69,NNW,345,3.5,5.8,88,0.00,OVC,,0.19,WeatherDisplay:10.37,2013-02-13 17:08:00,
2013-02-13 12:13:00,45.4,42.6,29.69,ENE,75,0.0,1.1,90,0.00,OVC,,0.19,WeatherDisplay:10.37,2013-02-13 17:13:00,
2013-02-13 12:18:00,45.6,42.5,29.68,NNE,20,1.4,3.5,89,0.00,OVC,,0.19,WeatherDisplay:10.37,2013-02-13 17:18:00,
2013-02-13 12:23:00,45.6,42.5,29.69,ENE,62,1.2,2.3,89,0.00,OVC,,0.19,WeatherDisplay:10.37,2013-02-13 17:23:00,
2013-02-13 12:28:00,45.6,42.5,29.68,NE,51,1.3,4.6,89,0.00,OVC,,0.19,WeatherDisplay:10.37,2013-02-13 17:28:00,
2013-02-13 12:33:00,45.5,42.7,29.68,NE,35,1.3,3.7,90,0.00,OVC,,0.19,WeatherDisplay:10.37,2013-02-13 17:33:00,
2013-02-13 12:38:00,45.6,42.5,29.67,ENE,70,0.0,2.3,89,0.00,OVC,,0.19,WeatherDisplay:10.37,2013-02-13 17:38:00,
2013-02-13 12:43:00,45.7,42.9,29.67,East,79,3.1,3.7,90,0.00,OVC,,0.19,WeatherDisplay:10.37,2013-02-13 17:43:00,
2013-02-13 12:48:00,45.8,42.7,29.66,East,84,0.0,1.1,89,0.00,OVC,,0.19,WeatherDisplay:10.37,2013-02-13 17:48:00,
2013-02-13 12:53:00,45.9,42.5,29.66,East,90,1.0,2.3,88,0.00,OVC,,0.19,WeatherDisplay:10.37,2013-02-13 17:53:00,
2013-02-13 12:58:00,46.2,42.5,29.66,East,90,0.0,0.0,87,0.00,OVC,,0.19,WeatherDisplay:10.37,2013-02-13 17:58:00,
2013-02-13 13:03:00,47.1,43.4,29.66,NE,42,0.2,3.5,87,0.00,OVC,,0.19,WeatherDisplay:10.37,2013-02-13 18:03:00,
2013-02-13 13:08:00,47.5,43.5,29.65,NE,44,2.0,3.7,86,0.00,OVC,,0.19,WeatherDisplay:10.37,2013-02-13 18:08:00,
2013-02-13 13:13:00,48.2,43.9,29.65,NE,46,6.1,8.1,85,0.00,OVC,,0.19,WeatherDisplay:10.37,2013-02-13 18:13:00,
2013-02-13 13:18:00,49.2,44.9,29.65,NE,48,4.2,4.9,85,0.00,OVC,,0.19,WeatherDisplay:10.37,2013-02-13 18:18:00,
2013-02-13 13:23:00,49.5,43.6,29.65,ENE,66,5.4,8.1,80,0.00,OVC,,0.19,WeatherDisplay:10.37,2013-02-13 18:23:00,
2013-02-13 13:28:00,50.6,41.9,29.65,ESE,102,1.3,5.8,72,0.00,OVC,,0.19,WeatherDisplay:10.37,2013-02-13 18:28:00,
2013-02-13 13:33:00,51.9,40.5,29.65,ENE,67,5.4,6.9,65,0.00,OVC,,0.19,WeatherDisplay:10.37,2013-02-13 18:33:00,
2013-02-13 13:39:00,52.3,39.2,29.65,WSW,237,11.1,12.7,61,0.00,OVC,,0.19,WeatherDisplay:10.37,2013-02-13 18:39:00,
2013-02-13 13:44:00,51.9,38.9,29.65,ESE,109,5.9,11.0,61,0.00,OVC,,0.19,WeatherDisplay:10.37,2013-02-13 18:44:00,
2013-02-13 13:49:00,51.9,38.4,29.65,SSE,148,5.9,5.9,60,0.00,OVC,,0.19,WeatherDisplay:10.37,2013-02-13 18:49:00,
2013-02-13 13:54:00,51.7,39.5,29.65,SW,224,7.5,24.2,63,0.00,OVC,,0.19,WeatherDisplay:10.37,2013-02-13 18:54:00,
2013-02-13 13:59:00,51.1,37.3,29.65,SSW,209,9.6,11.5,59,0.00,OVC,,0.19,WeatherDisplay:10.37,2013-02-13 18:59:00,
2013-02-13 14:04:00,51.4,37.1,29.65,SE,137,4.4,9.2,58,0.00,OVC,,0.19,WeatherDisplay:10.37,2013-02-13 19:04:00,
2013-02-13 14:09:00,52.5,36.8,29.65,East,94,3.9,8.5,55,0.00,OVC,,0.19,WeatherDisplay:10.37,2013-02-13 19:09:00,
2013-02-13 14:14:00,52.7,36.5,29.65,WSW,240,2.2,12.7,54,0.00,OVC,,0.19,WeatherDisplay:10.37,2013-02-13 19:14:00,
2013-02-13 14:19:00,52.7,36.5,29.66,East,97,9.5,17.1,54,0.00,OVC,,0.19,WeatherDisplay:10.37,2013-02-13 19:19:00,
2013-02-13 14:24:00,52.0,37.2,29.66,SW,218,3.5,4.6,57,0.00,OVC,,0.19,WeatherDisplay:10.37,2013-02-13 19:24:00,
2013-02-13 14:29:00,51.5,36.3,29.67,ESE,114,11.7,19.5,56,0.00,OVC,,0.19,WeatherDisplay:10.37,2013-02-13 19:29:00,
2013-02-13 14:34:00,50.6,35.9,29.66,SW,222,12.0,15.0,57,0.00,OVC,,0.19,WeatherDisplay:10.37,2013-02-13 19:34:00,
2013-02-13 14:39:00,50.1,37.2,29.68,SSW,200,6.8,11.0,61,0.00,OVC,,0.19,WeatherDisplay:10.37,2013-02-13 19:39:00,
2013-02-13 14:44:00,50.2,37.3,29.66,East,101,6.9,11.5,61,0.00,OVC,,0.19,WeatherDisplay:10.37,2013-02-13 19:44:00,
2013-02-13 14:49:00,50.3,36.9,29.67,SE,125,10.1,11.5,60,0.00,OVC,,0.19,WeatherDisplay:10.37,2013-02-13 19:49:00,
2013-02-13 14:54:00,49.7,37.2,29.67,West,279,1.2,16.1,62,0.00,OVC,,0.19,WeatherDisplay:10.37,2013-02-13 19:54:00,
2013-02-13 14:59:00,50.4,37.9,29.66,ESE,104,3.8,15.9,62,0.00,OVC,,0.19,WeatherDisplay:10.37,2013-02-13 19:59:00,
2013-02-13 15:04:00,50.1,37.2,29.66,ESE,123,3.9,6.9,61,0.00,SCT,,0.19,WeatherDisplay:10.37,2013-02-13 20:04:00,
2013-02-13 15:09:00,50.3,36.5,29.66,NNW,344,2.3,12.7,59,0.00,SCT,,0.19,WeatherDisplay:10.37,2013-02-13 20:09:00,
2013-02-13 15:14:00,50.1,37.2,29.67,SSW,211,2.1,8.1,61,0.00,SCT,,0.19,WeatherDisplay:10.37,2013-02-13 20:14:00,
2013-02-13 15:19:00,50.0,37.1,29.66,NW,308,3.0,11.5,61,0.00,SCT,,0.19,WeatherDisplay:10.37,2013-02-13 20:19:00,
2013-02-13 15:24:00,49.7,36.4,29.67,SSW,209,6.9,16.1,60,0.00,SCT,,0.19,WeatherDisplay:10.37,2013-02-13 20:24:00,
2013-02-13 15:29:00,50.0,36.7,29.67,SW,216,2.0,5.8,60,0.00,SCT,,0.19,WeatherDisplay:10.37,2013-02-13 20:29:00,
2013-02-13 15:34:00,50.2,36.4,29.67,NE,44,2.2,13.8,59,0.00,SCT,,0.19,WeatherDisplay:10.37,2013-02-13 20:34:00,
2013-02-13 15:39:00,50.0,37.1,29.68,SSW,205,1.0,6.9,61,0.00,SCT,,0.19,WeatherDisplay:10.37,2013-02-13 20:39:00,
2013-02-13 15:44:00,49.7,36.8,29.67,NW,305,0.0,3.5,61,0.00,SCT,,0.19,WeatherDisplay:10.37,2013-02-13 20:44:00,
2013-02-13 15:49:00,49.4,36.9,29.68,North,350,7.1,15.9,62,0.00,SCT,,0.19,WeatherDisplay:10.37,2013-02-13 20:49:00,
2013-02-13 15:54:00,49.4,37.7,29.68,South,178,0.2,2.3,64,0.00,SCT,,0.19,WeatherDisplay:10.37,2013-02-13 20:54:00,
2013-02-13 15:59:00,49.6,36.3,29.68,SSW,206,4.1,8.1,60,0.00,SCT,,0.19,WeatherDisplay:10.37,2013-02-13 20:59:00,
2013-02-13 16:04:00,49.2,36.3,29.68,SSW,204,5.4,9.8,61,0.00,FEW,,0.19,WeatherDisplay:10.37,2013-02-13 21:04:00,
2013-02-13 16:09:00,48.8,35.9,29.70,SW,224,3.9,8.1,61,0.00,FEW,,0.19,WeatherDisplay:10.37,2013-02-13 21:09:00,
2013-02-13 16:14:00,48.7,37.1,29.69,WSW,243,1.0,5.8,64,0.00,FEW,,0.19,WeatherDisplay:10.37,2013-02-13 21:14:00,
2013-02-13 16:19:00,48.2,36.2,29.70,South,171,1.0,6.9,63,0.00,FEW,,0.19,WeatherDisplay:10.37,2013-02-13 21:19:00,
2013-02-13 16:24:00,47.6,37.6,29.71,SE,128,6.3,12.7,68,0.00,FEW,,0.19,WeatherDisplay:10.37,2013-02-13 21:24:00,
2013-02-13 16:29:00,47.0,37.4,29.71,SW,221,1.5,8.1,69,0.00,FEW,,0.19,WeatherDisplay:10.37,2013-02-13 21:29:00,
2013-02-13 16:34:00,46.7,36.7,29.71,SW,224,18.9,20.7,68,0.00,FEW,,0.19,WeatherDisplay:10.37,2013-02-13 21:34:00,
2013-02-13 16:39:00,46.7,36.7,29.72,SSW,195,2.2,9.2,68,0.00,FEW,,0.19,WeatherDisplay:10.37,2013-02-13 21:39:00,
2013-02-13 16:44:00,46.5,36.5,29.72,SSW,200,6.6,9.8,68,0.00,FEW,,0.19,WeatherDisplay:10.37,2013-02-13 21:44:00,
2013-02-13 16:49:00,46.5,37.6,29.71,West,270,0.1,1.2,71,0.00,FEW,,0.19,WeatherDisplay:10.37,2013-02-13 21:49:00,
2013-02-13 16:54:00,46.5,36.1,29.71,South,190,12.2,16.1,67,0.00,FEW,,0.19,WeatherDisplay:10.37,2013-02-13 21:54:00,
2013-02-13 16:59:00,46.5,36.5,29.72,SSE,168,0.5,1.1,68,0.00,FEW,,0.19,WeatherDisplay:10.37,2013-02-13 21:59:00,
2013-02-13 17:04:00,46.3,36.3,29.72,SSW,193,14.7,17.3,68,0.00,FEW,,0.19,WeatherDisplay:10.37,2013-02-13 22:04:00,
2013-02-13 17:09:00,46.2,36.2,29.72,SW,222,6.5,6.5,68,0.00,FEW,,0.19,WeatherDisplay:10.37,2013-02-13 22:09:00,
2013-02-13 17:14:00,46.0,36.0,29.72,SW,218,0.0,6.9,68,0.00,FEW,,0.19,WeatherDisplay:10.37,2013-02-13 22:14:00,
2013-02-13 17:19:00,45.6,36.4,29.72,South,189,2.2,8.1,70,0.00,FEW,,0.19,WeatherDisplay:10.37,2013-02-13 22:19:00,
2013-02-13 17:24:00,45.5,35.9,29.73,WNW,301,0.3,3.5,69,0.00,FEW,,0.19,WeatherDisplay:10.37,2013-02-13 22:24:00,
2013-02-13 17:29:00,45.1,36.3,29.73,SW,214,5.3,5.3,71,0.00,FEW,,0.19,WeatherDisplay:10.37,2013-02-13 22:29:00,
2013-02-13 17:34:00,45.1,36.3,29.74,East,89,4.8,12.2,71,0.00,FEW,,0.19,WeatherDisplay:10.37,2013-02-13 22:34:00,
2013-02-13 17:39:00,44.0,36.6,29.75,East,84,6.3,11.0,75,0.00,FEW,,0.19,WeatherDisplay:10.37,2013-02-13 22:39:00,
2013-02-13 17:44:00,43.1,35.4,29.75,SE,145,3.5,9.2,74,0.00,FEW,,0.19,WeatherDisplay:10.37,2013-02-13 22:44:00,
2013-02-13 17:49:00,42.5,35.5,29.75,ESE,102,2.3,4.6,76,0.00,FEW,,0.19,WeatherDisplay:10.37,2013-02-13 22:49:00,
2013-02-13 17:55:00,42.2,34.2,29.76,ESE,111,7.9,7.9,73,0.00,FEW,,0.19,WeatherDisplay:10.37,2013-02-13 22:55:00,
2013-02-13 18:00:00,42.3,34.3,29.77,WSW,244,6.0,8.5,73,0.00,FEW,,0.19,WeatherDisplay:10.37,2013-02-13 23:00:00,
2013-02-13 18:05:00,42.3,34.3,29.77,SSE,148,0.0,0.0,73,0.00,CLR,,0.19,WeatherDisplay:10.37,2013-02-13 23:05:00,
2013-02-13 18:10:00,41.6,34.3,29.78,ESE,120,3.0,7.3,75,0.00,CLR,,0.19,WeatherDisplay:10.37,2013-02-13 23:10:00,
2013-02-13 18:15:00,41.3,33.6,29.80,East,98,4.1,8.1,74,0.00,CLR,,0.19,WeatherDisplay:10.37,2013-02-13 23:15:00,
2013-02-13 18:20:00,41.0,33.7,29.80,SE,134,2.7,3.5,75,0.00,CLR,,0.19,WeatherDisplay:10.37,2013-02-13 23:20:00,
2013-02-13 18:25:00,40.9,33.6,29.81,East,98,3.1,4.6,75,0.00,CLR,,0.19,WeatherDisplay:10.37,2013-02-13 23:25:00,
2013-02-13 18:30:00,40.4,33.1,29.82,SSW,200,1.2,11.5,75,0.00,CLR,,0.19,WeatherDisplay:10.37,2013-02-13 23:30:00,
2013-02-13 18:35:00,39.9,33.3,29.82,ESE,108,4.9,8.1,77,0.00,CLR,,0.19,WeatherDisplay:10.37,2013-02-13 23:35:00,
2013-02-13 18:40:00,39.7,32.8,29.82,SE,131,3.7,11.5,76,0.00,CLR,,0.19,WeatherDisplay:10.37,2013-02-13 23:40:00,
2013-02-13 18:45:00,39.5,32.9,29.82,ESE,115,1.7,5.8,77,0.00,CLR,,0.19,WeatherDisplay:10.37,2013-02-13 23:45:00,
2013-02-13 18:50:00,39.3,32.7,29.83,SW,231,6.7,8.5,77,0.00,CLR,,0.19,WeatherDisplay:10.37,2013-02-13 23:50:00,
2013-02-13 18:55:00,39.2,32.9,29.83,ENE,67,0.8,3.7,78,0.00,CLR,,0.19,WeatherDisplay:10.37,2013-02-13 23:55:00,
2013-02-13 19:00:00,38.9,32.0,29.84,East,93,0.0,3.5,76,0.00,CLR,,0.19,WeatherDisplay:10.37,2013-02-14 00:00:00,
2013-02-13 19:05:00,38.7,32.7,29.84,SSE,165,0.2,1.1,79,0.00,SCT,,0.19,WeatherDisplay:10.37,2013-02-14 00:05:00,
2013-02-13 19:10:00,38.4,32.5,29.84,East,98,0.0,1.2,79,0.00,SCT,,0.19,WeatherDisplay:10.37,2013-02-14 00:10:00,
2013-02-13 19:15:00,38.2,31.9,29.84,SE,140,4.5,4.6,78,0.00,SCT,,0.19,WeatherDisplay:10.37,2013-02-14 00:15:00,
2013-02-13 19:20:00,38.4,31.5,29.85,SE,128,3.9,8.1,76,0.00,SCT,,0.19,WeatherDisplay:10.37,2013-02-14 00:20:00,
2013-02-13 19:25:00,38.4,31.5,29.86,ENE,60,3.6,11.0,76,0.00,SCT,,0.19,WeatherDisplay:10.37,2013-02-14 00:25:00,
2013-02-13 19:30:00,38.3,31.1,29.86,South,178,0.0,4.6,75,0.00,SCT,,0.19,WeatherDisplay:10.37,2013-02-14 00:30:00,
2013-02-13 19:35:00,38.0,31.1,29.86,NW,320,0.7,6.9,76,0.00,SCT,,0.19,WeatherDisplay:10.37,2013-02-14 00:35:00,
2013-02-13 19:40:00,37.6,30.7,29.85,ESE,106,0.1,2.3,76,0.00,SCT,,0.19,WeatherDisplay:10.37,2013-02-14 00:40:00,
2013-02-13 19:45:00,37.5,30.3,29.86,SE,141,0.9,13.8,75,0.00,SCT,,0.19,WeatherDisplay:10.37,2013-02-14 00:45:00,
2013-02-13 19:50:00,37.5,30.3,29.86,South,191,2.0,5.8,75,0.00,SCT,,0.19,WeatherDisplay:10.37,2013-02-14 00:50:00,
2013-02-13 19:55:00,37.5,30.6,29.86,South,191,0.1,2.3,76,0.00,SCT,,0.19,WeatherDisplay:10.37,2013-02-14 00:55:00,
2013-02-13 20:00:00,37.3,31.1,29.86,South,173,0.8,2.3,78,0.00,SCT,,0.19,WeatherDisplay:10.37,2013-02-14 01:00:00,
2013-02-13 20:05:00,37.0,30.5,29.86,SSW,193,0.7,5.8,77,0.00,FEW,,0.19,WeatherDisplay:10.37,2013-02-14 01:05:00,
2013-02-13 20:10:00,37.1,29.9,29.87,SE,131,2.5,8.1,75,0.00,FEW,,0.19,WeatherDisplay:10.37,2013-02-14 01:10:00,
2013-02-13 20:15:00,37.2,30.0,29.87,East,91,1.9,4.6,75,0.00,FEW,,0.19,WeatherDisplay:10.37,2013-02-14 01:15:00,
2013-02-13 20:20:00,37.0,30.1,29.87,ESE,109,1.9,4.9,76,0.00,FEW,,0.19,WeatherDisplay:10.37,2013-02-14 01:20:00,
2013-02-13 20:25:00,36.9,30.4,29.87,SSE,161,0.0,2.3,77,0.00,FEW,,0.19,WeatherDisplay:10.37,2013-02-14 01:25:00,
2013-02-13 20:30:00,36.6,30.1,29.88,South,183,6.1,6.1,77,0.00,FEW,,0.19,WeatherDisplay:10.37,2013-02-14 01:30:00,
2013-02-13 20:35:00,36.5,30.3,29.88,ENE,78,5.9,13.4,78,0.00,FEW,,0.19,WeatherDisplay:10.37,2013-02-14 01:35:00,
2013-02-13 20:40:00,36.2,29.7,29.88,SE,133,1.4,2.4,77,0.00,FEW,,0.19,WeatherDisplay:10.37,2013-02-14 01:40:00,
2013-02-13 20:45:00,36.2,30.3,29.89,South,182,2.3,2.4,79,0.00,FEW,,0.19,WeatherDisplay:10.37,2013-02-14 01:45:00,
2013-02-13 20:50:00,36.2,30.0,29.89,ESE,103,12.2,20.7,78,0.00,FEW,,0.19,WeatherDisplay:10.37,2013-02-14 01:50:00,
2013-02-13 20:55:00,36.2,30.0,29.90,WSW,254,0.0,1.1,78,0.00,FEW,,0.19,WeatherDisplay:10.37,2013-02-14 01:55:00,
2013-02-13 21:00:00,36.1,30.2,29.90,East,80,9.9,9.9,79,0.00,FEW,,0.19,WeatherDisplay:10.37,2013-02-14 02:00:00,
2013-02-13 21:05:00,36.1,29.6,29.89,WSW,247,0.0,4.6,77,0.00,FEW,,0.19,WeatherDisplay:10.37,2013-02-14 02:05:00,
2013-02-13 21:10:00,36.1,29.9,29.89,ENE,63,5.0,6.1,78,0.00,FEW,,0.19,WeatherDisplay:10.37,2013-02-14 02:10:00,
2013-02-13 21:15:00,35.9,29.7,29.90,SSW,199,0.0,1.2,78,0.00,FEW,,0.19,WeatherDisplay:10.37,2013-02-14 02:15:00,
2013-02-13 21:20:00,35.7,29.5,29.90,SE,146,3.5,4.6,78,0.00,FEW,,0.19,WeatherDisplay:10.37,2013-02-14 02:20:00,
2013-02-13 21:25:00,35.9,29.7,29.90,SSW,198,0.0,0.0,78,0.00,FEW,,0.19,WeatherDisplay:10.37,2013-02-14 02:25:00,
2013-02-13 21:30:00,35.5,29.3,29.89,SSW,198,0.9,3.5,78,0.00,FEW,,0.19,WeatherDisplay:10.37,2013-02-14 02:30:00,
2013-02-13 21:35:00,35.3,29.4,29.89,NNW,336,0.0,0.0,79,0.00,FEW,,0.19,WeatherDisplay:10.37,2013-02-14 02:35:00,
2013-02-13 21:40:00,35.6,29.1,29.90,East,79,1.0,5.8,77,0.00,FEW,,0.19,WeatherDisplay:10.37,2013-02-14 02:40:00,
2013-02-13 21:45:00,35.8,29.3,29.90,East,93,2.3,5.8,77,0.00,FEW,,0.19,WeatherDisplay:10.37,2013-02-14 02:45:00,
2013-02-13 21:50:00,35.6,29.1,29.90,East,83,3.2,5.8,77,0.00,FEW,,0.19,WeatherDisplay:10.37,2013-02-14 02:50:00,
2013-02-13 21:55:00,35.7,28.9,29.90,ESE,107,7.2,8.1,76,0.00,FEW,,0.19,WeatherDisplay:10.37,2013-02-14 02:55:00,
2013-02-13 22:00:00,35.9,29.1,29.90,East,79,3.1,6.9,76,0.00,FEW,,0.19,WeatherDisplay:10.37,2013-02-14 03:00:00,
2013-02-13 22:06:00,35.6,29.1,29.90,ENE,66,5.3,8.1,77,0.00,FEW,,0.19,WeatherDisplay:10.37,2013-02-14 03:06:00,
2013-02-13 22:11:00,35.5,28.7,29.90,East,97,4.6,9.8,76,0.00,FEW,,0.19,WeatherDisplay:10.37,2013-02-14 03:11:00,
2013-02-13 22:16:00,35.2,29.0,29.90,SSW,200,0.6,6.9,78,0.00,FEW,,0.19,WeatherDisplay:10.37,2013-02-14 03:16:00,
2013-02-13 22:21:00,35.0,28.8,29.90,East,79,0.0,0.0,78,0.00,FEW,,0.19,WeatherDisplay:10.37,2013-02-14 03:21:00,
2013-02-13 22:26:00,35.0,28.5,29.90,ESE,104,0.0,4.6,77,0.00,FEW,,0.19,WeatherDisplay:10.37,2013-02-14 03:26:00,
2013-02-13 22:31:00,34.8,28.6,29.91,NW,308,0.0,0.0,78,0.00,FEW,,0.19,WeatherDisplay:10.37,2013-02-14 03:31:00,
2013-02-13 22:36:00,34.4,28.9,29.90,NW,308,0.0,0.0,80,0.00,FEW,,0.19,WeatherDisplay:10.37,2013-02-14 03:36:00,
2013-02-13 22:41:00,34.0,28.5,29.91,East,87,4.4,5.8,80,0.00,FEW,,0.19,WeatherDisplay:10.37,2013-02-14 03:41:00,
2013-02-13 22:46:00,34.0,28.5,29.91,East,100,4.2,4.6,80,0.00,FEW,,0.19,WeatherDisplay:10.37,2013-02-14 03:46:00,
2013-02-13 22:51:00,34.2,28.7,29.91,ESE,123,0.0,0.0,80,0.00,FEW,,0.19,WeatherDisplay:10.37,2013-02-14 03:51:00,
2013-02-13 22:56:00,34.4,28.6,29.91,ENE,66,2.4,11.5,79,0.00,FEW,,0.19,WeatherDisplay:10.37,2013-02-14 03:56:00,
2013-02-13 23:02:00,34.5,28.7,29.91,SSW,197,2.5,4.9,79,0.00,FEW,,0.19,WeatherDisplay:10.37,2013-02-14 04:02:00,
2013-02-13 23:07:00,34.9,28.7,29.91,WSW,237,0.3,0.0,78,0.00,CLR,,0.19,WeatherDisplay:10.37,2013-02-14 04:07:00,
2013-02-13 23:12:00,35.1,28.3,29.91,WSW,243,4.0,11.5,76,0.00,CLR,,0.19,WeatherDisplay:10.37,2013-02-14 04:12:00,
2013-02-13 23:17:00,35.1,28.6,29.91,ENE,60,0.0,0.0,77,0.00,CLR,,0.19,WeatherDisplay:10.37,2013-02-14 04:17:00,
2013-02-13 23:22:00,34.8,28.3,29.91,ESE,104,4.4,4.6,77,0.00,CLR,,0.19,WeatherDisplay:10.37,2013-02-14 04:22:00,
2013-02-13 23:27:00,34.7,28.2,29.92,NNW,331,1.3,0.0,77,0.00,CLR,,0.19,WeatherDisplay:10.37,2013-02-14 04:27:00,
2013-02-13 23:32:00,34.3,28.8,29.92,NNW,331,0.0,0.0,80,0.00,CLR,,0.19,WeatherDisplay:10.37,2013-02-14 04:32:00,
2013-02-13 23:37:00,33.9,28.7,29.92,SW,224,4.6,6.1,81,0.00,CLR,,0.19,WeatherDisplay:10.37,2013-02-14 04:37:00,
2013-02-13 23:42:00,34.0,28.5,29.93,SW,227,0.2,2.3,80,0.00,CLR,,0.19,WeatherDisplay:10.37,2013-02-14 04:42:00,
2013-02-13 23:47:00,33.9,28.7,29.93,WNW,288,0.3,2.3,81,0.00,CLR,,0.19,WeatherDisplay:10.37,2013-02-14 04:47:00,
2013-02-13 23:52:00,33.7,28.8,29.93,SW,236,3.1,3.7,82,0.00,CLR,,0.19,WeatherDisplay:10.37,2013-02-14 04:52:00,
2013-02-13 23:57:00,33.9,28.4,29.93,SW,215,0.8,1.2,80,0.00,CLR,,0.19,WeatherDisplay:10.37,2013-02-14 04:57:00,